Humphrey, Arkansas
Current Conditions -  °F | °C
As of 1:15 PM on Friday 21 Nov 2014 (Local Time) from KSGT Reporting Station
Overcast Overcast  
Wind Chill: 45°   Ceiling: 3800
Heat Index: 48°   Visibility: 2.5mi
Dew Point: 46°   Wind: 7mph
Humidity: 93%   Direction: 50°NE
Pressure: 30.27"   Gusts: NA
Location:  34.42°N, 91.71°W
Report Text: KSGT 211915Z 05006KT 2 1/2SM OVC038 09/08 A3027 RMK AO1 P0003
Loading
Personal Weather Stations






























Interactive Weather Map New forecast layout! Learn more

10-Day Weather Forecast

Advertisements
Track Severe Weather on mobile